Time;durP1;ratioP1;P1;durP2;ratioP2;P2;SDS_P1;SDS_P2;PMS_P1;PMS_P2;Temp;Humidity;BMP_temperature;BMP_pressure;BME280_temperature;BME280_humidity;BME280_pressure;Samples;Min_cycle;Max_cycle;Signal;HPM_P1;HPM_P2
2021/04/06 00:01:25;;;;;;;;;;;-3.70;96.70;;;;;;5052158;28;19920;-67
2021/04/06 00:03:52;;;;;;;;;;;-3.50;97.00;;;;;;5051532;28;19944;-67
2021/04/06 00:06:20;;;;;;;;;;;-3.30;97.30;;;;;;5051246;28;19963;-68
2021/04/06 00:08:49;;;;;;;;;;;-3.20;97.90;;;;;;5049061;28;19948;-67
2021/04/06 00:11:15;;;;;;;;;;;-3.20;98.00;;;;;;5051925;28;19912;-67
2021/04/06 00:13:40;;;;;;;;;;;-3.20;98.00;;;;;;5054067;28;20243;-67
2021/04/06 00:16:07;;;;;;;;;;;-3.20;98.00;;;;;;5053227;28;19921;-67
2021/04/06 00:18:33;;;;;;;;;;;-3.10;97.60;;;;;;5052719;28;20246;-68
2021/04/06 00:21:01;;;;;;;;;;;-3.00;98.00;;;;;;5051958;28;19917;-66
2021/04/06 00:23:28;;;;;;;;;;;-2.90;98.00;;;;;;5049350;28;19917;-67
2021/04/06 00:25:55;;;;;;;;;;;-2.80;98.00;;;;;;5052283;28;19927;-66
2021/04/06 00:28:25;;;;;;;;;;;-2.80;98.00;;;;;;5053275;28;19965;-66
2021/04/06 00:30:52;;;;;;;;;;;-2.80;98.00;;;;;;5050570;28;20094;-68
2021/04/06 00:33:20;;;;;;;;;;;-2.80;98.00;;;;;;5051497;28;19928;-67
2021/04/06 00:35:53;;;;;;;;;;;-2.80;98.00;;;;;;5051295;28;19993;-67
2021/04/06 00:38:19;;;;;;;;;;;-2.90;98.00;;;;;;5050403;28;19917;-68
2021/04/06 00:40:49;;;;;;;;;;;-2.90;98.00;;;;;;5052720;28;19935;-69
2021/04/06 00:43:15;;;;;;;;;;;-3.10;98.00;;;;;;5051037;28;19935;-67
2021/04/06 00:45:43;;;;;;;;;;;-3.30;97.80;;;;;;5050788;28;19972;-67
2021/04/06 00:48:11;;;;;;;;;;;-3.50;97.80;;;;;;5052473;28;19917;-68
2021/04/06 00:50:37;;;;;;;;;;;-3.70;97.70;;;;;;5050116;28;19939;-69
2021/04/06 00:53:03;;;;;;;;;;;-3.70;97.70;;;;;;5049041;28;20222;-68
2021/04/06 00:55:33;;;;;;;;;;;-3.80;97.80;;;;;;5051030;28;19928;-70
2021/04/06 00:57:59;;;;;;;;;;;-4.00;98.00;;;;;;5051034;28;20010;-68
2021/04/06 01:00:24;;;;;;;;;;;-4.10;97.60;;;;;;5050333;28;20309;-68
2021/04/06 01:02:58;;;;;;;;;;;-4.20;97.70;;;;;;5050494;28;19913;-67
2021/04/06 01:05:23;;;;;;;;;;;-4.30;97.70;;;;;;5050075;28;19913;-68
2021/04/06 01:07:51;;;;;;;;;;;-4.30;97.10;;;;;;5051086;28;19923;-66
2021/04/06 01:10:17;;;;;;;;;;;-4.30;97.50;;;;;;5049832;28;19913;-67
2021/04/06 01:12:44;;;;;;;;;;;-4.30;97.80;;;;;;5050983;28;19920;-67
2021/04/06 01:15:10;;;;;;;;;;;-4.40;97.50;;;;;;5048154;28;19929;-67
2021/04/06 01:17:36;;;;;;;;;;;-4.50;97.50;;;;;;5050098;28;19952;-66
2021/04/06 01:20:12;;;;;;;;;;;-4.50;97.70;;;;;;5050176;28;20249;-67
2021/04/06 01:22:41;;;;;;;;;;;-4.40;97.70;;;;;;5049053;28;20025;-69
2021/04/06 01:25:15;;;;;;;;;;;-4.40;97.70;;;;;;5049302;28;20445;-69
2021/04/06 01:27:40;;;;;;;;;;;-4.40;97.50;;;;;;5049763;28;19927;-67
2021/04/06 01:30:09;;;;;;;;;;;-4.50;97.40;;;;;;5049862;28;19920;-67
2021/04/06 01:32:35;;;;;;;;;;;-4.40;97.70;;;;;;5049626;28;20236;-68
2021/04/06 01:35:01;;;;;;;;;;;-4.50;98.00;;;;;;5049370;28;19925;-67
2021/04/06 01:37:28;;;;;;;;;;;-4.70;98.00;;;;;;5050249;28;19996;-68
2021/04/06 01:39:57;;;;;;;;;;;-5.00;97.80;;;;;;5049759;28;19920;-68
2021/04/06 01:42:28;;;;;;;;;;;-5.10;97.10;;;;;;5051004;28;19921;-69
2021/04/06 01:44:56;;;;;;;;;;;-5.10;97.50;;;;;;5052358;28;20023;-68
2021/04/06 01:47:24;;;;;;;;;;;-5.30;96.60;;;;;;5055636;28;19958;-68
2021/04/06 01:49:50;;;;;;;;;;;-5.20;97.10;;;;;;5055433;28;19974;-68
2021/04/06 01:52:16;;;;;;;;;;;-5.20;97.30;;;;;;5052993;28;19971;-68
2021/04/06 01:54:45;;;;;;;;;;;-5.10;97.10;;;;;;5049479;28;19917;-68
2021/04/06 01:57:16;;;;;;;;;;;-5.00;97.40;;;;;;5051453;28;20015;-67
2021/04/06 01:59:48;;;;;;;;;;;-5.10;97.30;;;;;;5053237;28;19917;-69
2021/04/06 02:02:15;;;;;;;;;;;-5.10;97.00;;;;;;5054700;28;19921;-67
2021/04/06 02:04:41;;;;;;;;;;;-5.00;97.80;;;;;;5053676;28;19927;-67
2021/04/06 02:07:10;;;;;;;;;;;-5.00;97.30;;;;;;5051653;28;19925;-69
2021/04/06 02:09:35;;;;;;;;;;;-5.00;97.40;;;;;;5056968;28;20309;-68
2021/04/06 02:12:01;;;;;;;;;;;-4.90;97.60;;;;;;5057475;28;20004;-68
2021/04/06 02:14:29;;;;;;;;;;;-4.80;97.50;;;;;;5053484;28;20367;-68
2021/04/06 02:17:05;;;;;;;;;;;-4.80;97.90;;;;;;5053447;28;19974;-69
2021/04/06 02:19:30;;;;;;;;;;;-4.90;97.60;;;;;;5053867;28;19913;-68
2021/04/06 02:22:03;;;;;;;;;;;-4.70;98.00;;;;;;5052216;28;20000;-69
2021/04/06 02:24:32;;;;;;;;;;;-4.60;98.00;;;;;;5052179;28;19917;-68
2021/04/06 02:27:03;;;;;;;;;;;-4.50;98.00;;;;;;5053092;28;20318;-68
2021/04/06 02:29:29;;;;;;;;;;;-4.40;98.00;;;;;;5053259;28;20586;-69
2021/04/06 02:31:56;;;;;;;;;;;-4.50;98.00;;;;;;5085609;28;20036;-68
2021/04/06 02:34:21;;;;;;;;;;;-4.50;98.00;;;;;;5052939;28;20206;-69
2021/04/06 02:36:47;;;;;;;;;;;-4.60;97.80;;;;;;5052653;28;19919;-68
2021/04/06 02:39:12;;;;;;;;;;;-4.50;97.80;;;;;;5051913;28;20389;-69
2021/04/06 02:41:41;;;;;;;;;;;-4.60;98.00;;;;;;5053534;28;20256;-67
2021/04/06 02:44:07;;;;;;;;;;;-4.70;97.90;;;;;;5053535;28;19939;-69
2021/04/06 02:46:35;;;;;;;;;;;-4.60;98.00;;;;;;5053382;28;19999;-68
2021/04/06 02:49:00;;;;;;;;;;;-4.50;98.00;;;;;;5053067;28;20074;-69
2021/04/06 02:51:26;;;;;;;;;;;-4.50;98.00;;;;;;5053021;28;19917;-68
2021/04/06 02:53:52;;;;;;;;;;;-4.40;98.00;;;;;;5051619;28;19913;-69
2021/04/06 02:56:31;;;;;;;;;;;-4.40;98.00;;;;;;5052937;28;19921;-67
2021/04/06 02:59:23;;;;;;;;;;;-4.50;97.90;;;;;;5052902;28;19917;-67
2021/04/06 03:01:49;;;;;;;;;;;-4.50;98.00;;;;;;5051111;28;20290;-67
2021/04/06 03:04:27;;;;;;;;;;;-4.60;98.00;;;;;;5052437;28;19932;-67
2021/04/06 03:06:58;;;;;;;;;;;-4.60;97.70;;;;;;5085729;28;20229;-69
2021/04/06 03:09:27;;;;;;;;;;;-4.60;97.80;;;;;;5050687;28;20268;-69
2021/04/06 03:11:54;;;;;;;;;;;-4.60;98.00;;;;;;5054575;28;19920;-68
2021/04/06 03:14:30;;;;;;;;;;;-4.50;98.00;;;;;;5057700;28;19909;-68
2021/04/06 03:16:57;;;;;;;;;;;-4.50;98.00;;;;;;5052719;28;19935;-69
2021/04/06 03:19:29;;;;;;;;;;;-4.50;98.00;;;;;;5052363;28;19920;-68
2021/04/06 03:21:56;;;;;;;;;;;-4.50;97.80;;;;;;5052126;28;19921;-68
2021/04/06 03:24:26;;;;;;;;;;;-4.50;98.00;;;;;;5050858;28;19921;-68
2021/04/06 03:26:52;;;;;;;;;;;-4.50;98.00;;;;;;5052405;28;19929;-68
2021/04/06 03:29:18;;;;;;;;;;;-4.40;98.00;;;;;;5052730;28;20054;-68
2021/04/06 03:31:44;;;;;;;;;;;-4.50;98.00;;;;;;5051611;28;20271;-68
2021/04/06 03:34:09;;;;;;;;;;;-4.50;97.90;;;;;;5052266;28;20311;-67
2021/04/06 03:36:35;;;;;;;;;;;-4.50;97.70;;;;;;5051206;28;19913;-68
2021/04/06 03:39:02;;;;;;;;;;;-4.40;98.00;;;;;;5050579;28;20134;-68
2021/04/06 03:41:29;;;;;;;;;;;-4.50;98.00;;;;;;5052630;28;19916;-68
2021/04/06 03:44:03;;;;;;;;;;;-4.60;98.00;;;;;;5052479;28;19920;-67
2021/04/06 03:46:32;;;;;;;;;;;-4.60;98.00;;;;;;5052110;28;19917;-68
2021/04/06 03:49:12;;;;;;;;;;;-4.50;98.00;;;;;;5051672;28;19925;-69
2021/04/06 03:51:45;;;;;;;;;;;-4.40;98.00;;;;;;5051580;28;20295;-68
2021/04/06 03:54:27;;;;;;;;;;;-4.50;97.90;;;;;;5050584;28;19924;-67
2021/04/06 03:56:53;;;;;;;;;;;-4.40;98.00;;;;;;5052055;28;19928;-67
2021/04/06 03:59:21;;;;;;;;;;;-4.40;97.90;;;;;;5051517;28;20210;-67
2021/04/06 04:01:49;;;;;;;;;;;-4.30;98.00;;;;;;5051602;28;19924;-68
2021/04/06 04:04:15;;;;;;;;;;;-4.10;97.70;;;;;;5051619;28;20027;-68
2021/04/06 04:06:40;;;;;;;;;;;-4.10;97.40;;;;;;5052031;28;20137;-68
2021/04/06 04:09:06;;;;;;;;;;;-4.10;97.40;;;;;;5049528;28;20329;-68
2021/04/06 04:11:31;;;;;;;;;;;-4.00;97.50;;;;;;5051730;28;20209;-68
2021/04/06 04:13:57;;;;;;;;;;;-3.90;97.40;;;;;;5051386;28;19921;-68
2021/04/06 04:16:22;;;;;;;;;;;-3.90;97.40;;;;;;5055467;28;19928;-68
2021/04/06 04:18:50;;;;;;;;;;;-3.90;97.50;;;;;;5052448;28;19921;-68
2021/04/06 04:21:16;;;;;;;;;;;-3.80;97.40;;;;;;5050786;28;19920;-67
2021/04/06 04:23:42;;;;;;;;;;;-3.80;97.40;;;;;;5049256;28;19921;-67
2021/04/06 04:26:07;;;;;;;;;;;-3.80;97.20;;;;;;5050592;28;19916;-69
2021/04/06 04:28:33;;;;;;;;;;;-3.80;97.40;;;;;;5050483;28;19917;-68
2021/04/06 04:31:01;;;;;;;;;;;-3.70;97.40;;;;;;5050197;28;20222;-68
2021/04/06 04:33:26;;;;;;;;;;;-3.60;97.10;;;;;;5050980;28;19921;-68
2021/04/06 04:35:54;;;;;;;;;;;-3.60;97.30;;;;;;5051513;28;19913;-68
2021/04/06 04:38:20;;;;;;;;;;;-3.60;97.40;;;;;;5050371;28;19932;-68
2021/04/06 04:40:45;;;;;;;;;;;-3.50;97.10;;;;;;5051338;28;19920;-68
2021/04/06 04:43:13;;;;;;;;;;;-3.50;96.60;;;;;;5051244;28;19943;-68
2021/04/06 04:45:39;;;;;;;;;;;-3.40;96.60;;;;;;5049846;28;19913;-68
2021/04/06 04:48:05;;;;;;;;;;;-3.40;96.10;;;;;;5048692;28;20325;-68
2021/04/06 04:50:31;;;;;;;;;;;-3.30;95.80;;;;;;5051557;28;19931;-68
2021/04/06 04:52:57;;;;;;;;;;;-3.30;95.80;;;;;;5049224;28;19928;-67
2021/04/06 04:55:23;;;;;;;;;;;-3.30;96.00;;;;;;5050901;28;19913;-66
2021/04/06 04:57:48;;;;;;;;;;;-3.30;96.40;;;;;;5049923;28;19942;-68
2021/04/06 05:00:15;;;;;;;;;;;-3.20;96.10;;;;;;5050318;28;19978;-68
2021/04/06 05:02:41;;;;;;;;;;;-3.20;96.20;;;;;;5050498;28;19919;-67
2021/04/06 05:05:07;;;;;;;;;;;-3.20;95.80;;;;;;5050400;28;20062;-67
2021/04/06 05:07:33;;;;;;;;;;;-3.20;96.10;;;;;;5048968;28;19935;-68
2021/04/06 05:09:58;;;;;;;;;;;-3.10;95.90;;;;;;5050239;28;19917;-67
2021/04/06 05:12:24;;;;;;;;;;;-3.10;96.20;;;;;;5049228;28;20043;-68
2021/04/06 05:14:50;;;;;;;;;;;-3.20;96.00;;;;;;5050522;28;19970;-68
2021/04/06 05:17:19;;;;;;;;;;;-3.20;96.30;;;;;;5050178;28;19916;-67
2021/04/06 05:19:45;;;;;;;;;;;-3.10;96.20;;;;;;5054029;28;19913;-68
2021/04/06 05:22:10;;;;;;;;;;;-3.00;95.80;;;;;;5049023;28;19921;-67
2021/04/06 05:24:36;;;;;;;;;;;-3.00;96.10;;;;;;5049468;28;19919;-66
2021/04/06 05:27:01;;;;;;;;;;;-3.00;95.90;;;;;;5049917;28;19935;-66
2021/04/06 05:29:27;;;;;;;;;;;-3.00;96.00;;;;;;5050051;28;20098;-68
2021/04/06 05:31:52;;;;;;;;;;;-2.90;95.60;;;;;;5049063;28;21075;-67
2021/04/06 05:34:26;;;;;;;;;;;-2.90;95.30;;;;;;5049690;28;19921;-67
2021/04/06 05:36:51;;;;;;;;;;;-2.90;95.60;;;;;;5050773;28;19932;-67
2021/04/06 05:39:17;;;;;;;;;;;-2.90;95.30;;;;;;5047880;28;21493;-68
2021/04/06 05:41:43;;;;;;;;;;;-2.90;95.70;;;;;;5049483;28;19913;-67
2021/04/06 05:44:09;;;;;;;;;;;-2.80;95.90;;;;;;5049442;28;20433;-67
2021/04/06 05:46:36;;;;;;;;;;;-2.80;95.30;;;;;;5050448;28;19912;-67
2021/04/06 05:49:02;;;;;;;;;;;-2.80;95.50;;;;;;5049064;28;19913;-68
2021/04/06 05:51:28;;;;;;;;;;;-2.70;95.70;;;;;;5065867;28;19925;-67
2021/04/06 05:53:54;;;;;;;;;;;-2.70;95.30;;;;;;5047774;28;19927;-66
2021/04/06 05:56:19;;;;;;;;;;;-2.70;95.40;;;;;;5049987;28;20453;-67
2021/04/06 05:58:45;;;;;;;;;;;-2.70;95.70;;;;;;5049888;28;20027;-66
2021/04/06 06:01:10;;;;;;;;;;;-2.60;95.60;;;;;;5050062;28;19921;-66
2021/04/06 06:03:37;;;;;;;;;;;-2.60;95.70;;;;;;5050710;28;19974;-69
2021/04/06 06:06:03;;;;;;;;;;;-2.60;95.70;;;;;;5049665;28;19925;-69
2021/04/06 06:08:30;;;;;;;;;;;-2.60;94.80;;;;;;5048850;28;19928;-69
2021/04/06 06:11:03;;;;;;;;;;;-2.70;94.60;;;;;;5049441;28;19921;-69
2021/04/06 06:13:29;;;;;;;;;;;-2.60;94.50;;;;;;5049740;28;19923;-69
2021/04/06 06:16:14;;;;;;;;;;;-2.60;93.70;;;;;;5048951;28;20019;-69
2021/04/06 06:18:57;;;;;;;;;;;-2.50;94.30;;;;;;5049776;28;19916;-69
2021/04/06 06:21:24;;;;;;;;;;;-2.50;94.40;;;;;;5061637;28;19948;-68
2021/04/06 06:23:50;;;;;;;;;;;-2.40;94.30;;;;;;5047554;28;20322;-69
2021/04/06 06:26:17;;;;;;;;;;;-2.40;94.80;;;;;;5049649;28;20385;-69
2021/04/06 06:29:04;;;;;;;;;;;-2.30;94.30;;;;;;5049299;28;19962;-69
2021/04/06 06:31:33;;;;;;;;;;;-2.20;94.40;;;;;;5048276;28;21559;-69
2021/04/06 06:33:58;;;;;;;;;;;-2.10;94.10;;;;;;5050475;28;20003;-69
2021/04/06 06:36:24;;;;;;;;;;;-2.20;94.10;;;;;;5050302;28;20385;-69
2021/04/06 06:38:50;;;;;;;;;;;-2.10;93.70;;;;;;5047976;28;20012;-68
2021/04/06 06:41:17;;;;;;;;;;;-2.00;93.50;;;;;;5048999;28;20012;-69
2021/04/06 06:43:44;;;;;;;;;;;-2.00;93.30;;;;;;5052455;28;20007;-68
2021/04/06 06:46:19;;;;;;;;;;;-2.10;93.10;;;;;;5052904;28;19913;-70
2021/04/06 06:48:55;;;;;;;;;;;-2.00;93.10;;;;;;5068304;28;19925;-69
2021/04/06 06:51:27;;;;;;;;;;;-1.90;93.60;;;;;;5053678;28;20007;-69
2021/04/06 06:53:52;;;;;;;;;;;-1.70;93.60;;;;;;5050765;28;19920;-69
2021/04/06 06:56:18;;;;;;;;;;;-1.60;92.70;;;;;;5053064;28;19921;-69
2021/04/06 06:58:43;;;;;;;;;;;-1.60;92.70;;;;;;5053813;28;19921;-68
2021/04/06 07:01:22;;;;;;;;;;;-1.60;92.10;;;;;;5053397;28;20004;-69
2021/04/06 07:04:06;;;;;;;;;;;-1.60;92.00;;;;;;5053559;28;19921;-68
2021/04/06 07:06:32;;;;;;;;;;;-1.50;92.40;;;;;;5052649;28;19923;-68
2021/04/06 07:08:59;;;;;;;;;;;-1.30;92.10;;;;;;5051125;28;19928;-69
2021/04/06 07:11:26;;;;;;;;;;;-1.30;91.20;;;;;;5052909;28;19913;-68
2021/04/06 07:13:52;;;;;;;;;;;-1.20;91.70;;;;;;5054142;28;19936;-68
2021/04/06 07:16:18;;;;;;;;;;;-1.20;90.80;;;;;;5067608;28;19925;-68
2021/04/06 07:18:44;;;;;;;;;;;-1.20;91.10;;;;;;5051776;28;20255;-69
2021/04/06 07:21:10;;;;;;;;;;;-1.00;90.50;;;;;;5053469;28;19920;-68
2021/04/06 07:23:56;;;;;;;;;;;-1.40;90.70;;;;;;5051201;28;19967;-68
2021/04/06 07:26:21;;;;;;;;;;;-1.40;91.80;;;;;;5052291;28;19913;-68
2021/04/06 07:28:49;;;;;;;;;;;-1.10;91.40;;;;;;5052092;28;20271;-69
2021/04/06 07:31:15;;;;;;;;;;;-1.00;90.90;;;;;;5053309;28;20538;-68
2021/04/06 07:33:42;;;;;;;;;;;-0.80;90.90;;;;;;5052676;28;19920;-69
2021/04/06 07:36:12;;;;;;;;;;;-0.50;90.00;;;;;;5053238;28;19924;-68
2021/04/06 07:38:42;;;;;;;;;;;-0.10;89.00;;;;;;5051236;28;19920;-67
2021/04/06 07:41:08;;;;;;;;;;;0.00;88.10;;;;;;5052493;28;19927;-68
2021/04/06 07:43:34;;;;;;;;;;;0.00;87.10;;;;;;5052238;28;19920;-68
2021/04/06 07:46:02;;;;;;;;;;;-0.10;88.00;;;;;;5051825;28;20375;-70
2021/04/06 07:48:48;;;;;;;;;;;0.00;88.90;;;;;;5052371;28;20302;-68
2021/04/06 07:51:25;;;;;;;;;;;-0.10;88.10;;;;;;5052033;28;19916;-70
2021/04/06 07:53:56;;;;;;;;;;;0.10;88.70;;;;;;5049700;28;19932;-68
2021/04/06 07:56:42;;;;;;;;;;;0.20;87.50;;;;;;5051280;28;19920;-70
2021/04/06 07:59:07;;;;;;;;;;;0.50;88.50;;;;;;5045286;28;19931;-69
2021/04/06 08:01:36;;;;;;;;;;;0.50;86.80;;;;;;5051667;28;20310;-69
2021/04/06 08:04:03;;;;;;;;;;;0.60;87.60;;;;;;5052388;28;19921;-69
2021/04/06 08:06:38;;;;;;;;;;;0.50;87.70;;;;;;5051641;28;20270;-69
2021/04/06 08:09:24;;;;;;;;;;;0.50;87.90;;;;;;5049758;28;20513;-68
2021/04/06 08:12:05;;;;;;;;;;;0.10;87.20;;;;;;5051707;28;19920;-69
2021/04/06 08:14:31;;;;;;;;;;;0.00;89.00;;;;;;5051820;28;19960;-68
2021/04/06 08:17:15;;;;;;;;;;;0.90;86.80;;;;;;5050720;28;19931;-68
2021/04/06 08:20:10;;;;;;;;;;;1.00;85.80;;;;;;5051112;28;20236;-69
2021/04/06 08:22:53;;;;;;;;;;;1.50;84.20;;;;;;5029726;28;20051;-71
2021/04/06 08:25:19;;;;;;;;;;;2.10;83.50;;;;;;5051599;28;20113;-70
2021/04/06 08:27:45;;;;;;;;;;;3.10;81.20;;;;;;5050899;28;19925;-69
2021/04/06 08:30:29;;;;;;;;;;;2.80;80.80;;;;;;5051429;28;19959;-71
2021/04/06 08:32:58;;;;;;;;;;;3.10;80.10;;;;;;5051349;28;19913;-69
2021/04/06 08:35:39;;;;;;;;;;;2.60;79.50;;;;;;5050297;28;19956;-69
2021/04/06 08:38:33;;;;;;;;;;;3.00;81.20;;;;;;5049684;28;19966;-69
2021/04/06 08:41:03;;;;;;;;;;;2.90;79.20;;;;;;5050520;28;20336;-69
2021/04/06 08:43:28;;;;;;;;;;;2.10;81.30;;;;;;5050541;28;19959;-70
2021/04/06 08:46:08;;;;;;;;;;;1.20;84.00;;;;;;5050585;28;20306;-68
2021/04/06 08:48:42;;;;;;;;;;;0.60;86.30;;;;;;5050545;28;20297;-68
2021/04/06 08:51:22;;;;;;;;;;;0.90;86.50;;;;;;5050520;28;19924;-68
2021/04/06 08:53:49;;;;;;;;;;;2.10;85.40;;;;;;5081766;28;19916;-68
2021/04/06 08:56:17;;;;;;;;;;;2.30;81.40;;;;;;5050508;28;20055;-69
2021/04/06 08:58:43;;;;;;;;;;;2.20;82.10;;;;;;5048801;28;20329;-71
2021/04/06 09:01:08;;;;;;;;;;;2.80;81.90;;;;;;5054471;28;19931;-71
2021/04/06 09:03:34;;;;;;;;;;;3.00;79.90;;;;;;5065692;28;20013;-69
2021/04/06 09:06:08;;;;;;;;;;;3.70;77.40;;;;;;5048016;28;19934;-71
2021/04/06 09:08:47;;;;;;;;;;;4.10;76.80;;;;;;5052530;28;19913;-71
2021/04/06 09:11:14;;;;;;;;;;;3.00;77.00;;;;;;5052772;28;19916;-71
2021/04/06 09:13:42;;;;;;;;;;;3.20;79.60;;;;;;5054435;28;19920;-71
2021/04/06 09:16:09;;;;;;;;;;;3.20;78.70;;;;;;5051761;28;19970;-71
2021/04/06 09:18:35;;;;;;;;;;;2.90;79.00;;;;;;5050758;28;19920;-72
2021/04/06 09:21:02;;;;;;;;;;;2.70;79.90;;;;;;5050199;28;19913;-72
2021/04/06 09:23:28;;;;;;;;;;;3.10;79.60;;;;;;5055421;28;20360;-73
2021/04/06 09:25:53;;;;;;;;;;;3.20;78.80;;;;;;5054248;28;20011;-73
2021/04/06 09:28:19;;;;;;;;;;;3.50;77.30;;;;;;5053887;28;20078;-73
2021/04/06 09:30:45;;;;;;;;;;;3.60;77.50;;;;;;5056436;28;19913;-73
2021/04/06 09:33:12;;;;;;;;;;;3.80;77.90;;;;;;5053765;28;19913;-72
2021/04/06 09:35:37;;;;;;;;;;;3.30;77.00;;;;;;5054172;28;19912;-72
2021/04/06 09:38:03;;;;;;;;;;;2.40;79.60;;;;;;5053562;28;20003;-72
2021/04/06 09:40:38;;;;;;;;;;;2.10;81.70;;;;;;5054161;28;19917;-72
2021/04/06 09:43:03;;;;;;;;;;;2.50;81.90;;;;;;5058578;28;19919;-71
2021/04/06 09:45:29;;;;;;;;;;;2.90;80.20;;;;;;5053002;28;19913;-71
2021/04/06 09:47:55;;;;;;;;;;;3.40;80.10;;;;;;5053423;28;20434;-72
2021/04/06 09:50:22;;;;;;;;;;;4.10;77.70;;;;;;5053331;28;19923;-71
2021/04/06 09:52:47;;;;;;;;;;;3.70;78.00;;;;;;5052399;28;19966;-71
2021/04/06 09:55:13;;;;;;;;;;;3.70;77.90;;;;;;5053866;28;19916;-70
2021/04/06 09:57:40;;;;;;;;;;;3.60;79.20;;;;;;5053219;28;19913;-71
2021/04/06 10:00:09;;;;;;;;;;;3.50;78.00;;;;;;5054698;28;19913;-71
2021/04/06 10:02:35;;;;;;;;;;;3.00;80.00;;;;;;5054147;28;19920;-70
2021/04/06 10:05:00;;;;;;;;;;;3.90;79.60;;;;;;5053168;28;19913;-69
2021/04/06 10:07:28;;;;;;;;;;;3.60;77.40;;;;;;5052759;28;19975;-71
2021/04/06 10:09:54;;;;;;;;;;;3.30;78.70;;;;;;5053875;28;19916;-71
2021/04/06 10:12:21;;;;;;;;;;;3.00;80.00;;;;;;5052860;28;19916;-71
2021/04/06 10:14:47;;;;;;;;;;;3.20;80.90;;;;;;5053293;28;20253;-72
2021/04/06 10:17:14;;;;;;;;;;;3.50;80.30;;;;;;5054349;28;19917;-69
2021/04/06 10:19:42;;;;;;;;;;;3.90;78.50;;;;;;5055570;28;20324;-70
2021/04/06 10:22:11;;;;;;;;;;;3.90;78.10;;;;;;5057133;28;19920;-71
2021/04/06 10:24:53;;;;;;;;;;;4.00;77.70;;;;;;5057684;28;19978;-70
2021/04/06 10:27:20;;;;;;;;;;;4.20;78.00;;;;;;5058316;28;20226;-70
2021/04/06 10:29:51;;;;;;;;;;;4.30;75.80;;;;;;5057918;28;19920;-70
2021/04/06 10:32:31;;;;;;;;;;;4.20;77.40;;;;;;5057953;28;19909;-69
2021/04/06 10:34:58;;;;;;;;;;;3.50;77.60;;;;;;5057666;28;19924;-69
2021/04/06 10:37:38;;;;;;;;;;;3.30;79.60;;;;;;5052995;28;19982;-68
2021/04/06 10:40:19;;;;;;;;;;;3.00;79.50;;;;;;5057554;28;19920;-68
2021/04/06 10:42:48;;;;;;;;;;;3.10;80.70;;;;;;5057825;28;20004;-69
2021/04/06 10:45:13;;;;;;;;;;;3.00;81.40;;;;;;5057701;28;19912;-69
2021/04/06 10:47:39;;;;;;;;;;;2.70;82.00;;;;;;5057740;28;19982;-68
2021/04/06 10:50:05;;;;;;;;;;;3.10;82.70;;;;;;5056101;28;19916;-69
2021/04/06 10:52:32;;;;;;;;;;;3.60;81.20;;;;;;5055604;28;19913;-67
2021/04/06 10:55:02;;;;;;;;;;;4.00;80.10;;;;;;5057127;28;19913;-67
2021/04/06 10:57:30;;;;;;;;;;;3.80;80.00;;;;;;5057656;28;19921;-67
2021/04/06 10:59:57;;;;;;;;;;;3.80;79.60;;;;;;5054070;28;19913;-67
2021/04/06 11:02:24;;;;;;;;;;;3.50;80.10;;;;;;5070723;28;20217;-68
2021/04/06 11:04:50;;;;;;;;;;;3.10;81.50;;;;;;5058505;28;20667;-68
2021/04/06 11:07:25;;;;;;;;;;;3.20;80.70;;;;;;5056485;28;19970;-68
2021/04/06 11:09:51;;;;;;;;;;;2.90;81.10;;;;;;5053802;28;19909;-67
2021/04/06 11:12:16;;;;;;;;;;;2.30;82.60;;;;;;5054891;28;19913;-67
2021/04/06 11:14:43;;;;;;;;;;;2.50;83.50;;;;;;5045743;28;19923;-68
2021/04/06 11:17:10;;;;;;;;;;;3.00;82.60;;;;;;5045693;28;19913;-66
2021/04/06 11:19:37;;;;;;;;;;;3.50;80.90;;;;;;5056559;28;19919;-68
2021/04/06 11:22:08;;;;;;;;;;;3.30;80.00;;;;;;5052873;28;19923;-67
2021/04/06 11:24:34;;;;;;;;;;;2.70;80.30;;;;;;5050826;28;20273;-68
2021/04/06 11:27:00;;;;;;;;;;;2.70;80.50;;;;;;5056414;28;19921;-67
2021/04/06 11:29:28;;;;;;;;;;;2.60;80.30;;;;;;5054114;28;19909;-68
2021/04/06 11:31:55;;;;;;;;;;;2.30;81.70;;;;;;5056032;28;19966;-66
2021/04/06 11:34:21;;;;;;;;;;;2.40;81.90;;;;;;5055783;28;19919;-68
2021/04/06 11:36:47;;;;;;;;;;;2.30;81.90;;;;;;5056433;28;20015;-68
2021/04/06 11:39:14;;;;;;;;;;;2.10;82.20;;;;;;5059342;28;20353;-67
2021/04/06 11:41:41;;;;;;;;;;;1.90;82.80;;;;;;5055094;28;19920;-66
2021/04/06 11:44:07;;;;;;;;;;;1.80;82.90;;;;;;5055264;28;19919;-66
2021/04/06 11:46:35;;;;;;;;;;;2.00;83.40;;;;;;5052013;28;19917;-66
2021/04/06 11:49:02;;;;;;;;;;;1.80;82.70;;;;;;5056343;28;20011;-66
2021/04/06 11:51:28;;;;;;;;;;;1.70;83.50;;;;;;5056337;28;19923;-66
2021/04/06 11:53:55;;;;;;;;;;;2.00;83.30;;;;;;5047932;28;19955;-66
2021/04/06 11:56:20;;;;;;;;;;;1.90;83.40;;;;;;5052612;28;20060;-65
2021/04/06 11:58:55;;;;;;;;;;;2.00;83.50;;;;;;5057018;28;19917;-66
2021/04/06 12:01:22;;;;;;;;;;;2.30;83.70;;;;;;5067357;28;19940;-66
2021/04/06 12:03:48;;;;;;;;;;;2.10;81.50;;;;;;5057499;28;19913;-65
2021/04/06 12:06:14;;;;;;;;;;;1.80;82.50;;;;;;5089522;28;19920;-65
2021/04/06 12:08:41;;;;;;;;;;;1.60;83.40;;;;;;5056072;28;20317;-66
2021/04/06 12:11:08;;;;;;;;;;;1.50;83.60;;;;;;5056799;28;19917;-65
2021/04/06 12:13:33;;;;;;;;;;;1.70;83.60;;;;;;5059721;28;19920;-67
2021/04/06 12:15:59;;;;;;;;;;;2.20;83.40;;;;;;5055106;28;20115;-67
2021/04/06 12:18:25;;;;;;;;;;;2.90;81.20;;;;;;5055715;28;19908;-68
2021/04/06 12:20:51;;;;;;;;;;;3.20;81.10;;;;;;5055335;28;19921;-68
2021/04/06 12:23:16;;;;;;;;;;;3.30;80.60;;;;;;5055434;28;19913;-68
2021/04/06 12:25:42;;;;;;;;;;;3.60;78.80;;;;;;5056617;28;20298;-67
2021/04/06 12:28:08;;;;;;;;;;;3.20;77.00;;;;;;5050207;28;19917;-67
2021/04/06 12:30:33;;;;;;;;;;;3.10;79.70;;;;;;5037211;28;20214;-68
2021/04/06 12:33:01;;;;;;;;;;;2.60;78.10;;;;;;5055900;28;20318;-68
2021/04/06 12:35:26;;;;;;;;;;;2.50;79.80;;;;;;5056727;28;20281;-67
2021/04/06 12:37:55;;;;;;;;;;;2.50;79.20;;;;;;5056039;28;19956;-67
2021/04/06 12:40:21;;;;;;;;;;;2.70;80.20;;;;;;5056185;28;19938;-69
2021/04/06 12:42:46;;;;;;;;;;;3.20;79.90;;;;;;5056561;28;20426;-67
2021/04/06 12:45:13;;;;;;;;;;;3.40;78.30;;;;;;5056726;28;19913;-67
2021/04/06 12:47:39;;;;;;;;;;;2.80;78.40;;;;;;5056045;28;19924;-68
2021/04/06 12:50:05;;;;;;;;;;;3.40;79.50;;;;;;5055872;28;20213;-68
2021/04/06 12:52:31;;;;;;;;;;;4.10;78.60;;;;;;5054887;28;19916;-68
2021/04/06 12:54:56;;;;;;;;;;;4.80;76.40;;;;;;5038840;28;20265;-67
2021/04/06 12:57:23;;;;;;;;;;;4.90;76.10;;;;;;5054238;28;19953;-68
2021/04/06 12:59:49;;;;;;;;;;;4.50;75.00;;;;;;5051121;28;19912;-67
2021/04/06 13:02:15;;;;;;;;;;;4.10;75.30;;;;;;5055609;28;19920;-67
2021/04/06 13:04:40;;;;;;;;;;;4.20;76.90;;;;;;5055943;28;19913;-67
2021/04/06 13:07:06;;;;;;;;;;;4.50;76.30;;;;;;5053582;28;20031;-68
2021/04/06 13:09:31;;;;;;;;;;;4.60;77.00;;;;;;5056495;28;20244;-67
2021/04/06 13:11:57;;;;;;;;;;;4.50;74.70;;;;;;5056215;28;19908;-67
2021/04/06 13:14:23;;;;;;;;;;;4.80;75.40;;;;;;5056274;28;19915;-68
2021/04/06 13:16:49;;;;;;;;;;;4.70;74.30;;;;;;5055969;28;19999;-67
2021/04/06 13:19:14;;;;;;;;;;;4.00;71.40;;;;;;5055674;28;19920;-69
2021/04/06 13:21:43;;;;;;;;;;;3.60;74.30;;;;;;5055450;28;20202;-66
2021/04/06 13:24:09;;;;;;;;;;;3.40;76.20;;;;;;5053168;28;19958;-67
2021/04/06 13:26:35;;;;;;;;;;;3.20;75.60;;;;;;5048473;28;19913;-68
2021/04/06 13:29:01;;;;;;;;;;;3.30;75.40;;;;;;5055646;28;19917;-69
2021/04/06 13:31:27;;;;;;;;;;;3.70;67.50;;;;;;5056048;28;19955;-68
2021/04/06 13:33:52;;;;;;;;;;;3.80;65.00;;;;;;5056236;28;19913;-67
2021/04/06 13:36:18;;;;;;;;;;;4.20;66.70;;;;;;5055969;28;20237;-67
2021/04/06 13:38:46;;;;;;;;;;;4.50;67.30;;;;;;5055034;28;19908;-68
2021/04/06 13:41:11;;;;;;;;;;;5.20;67.90;;;;;;5054536;28;19908;-68
2021/04/06 13:43:37;;;;;;;;;;;5.50;65.40;;;;;;5055311;28;20015;-67
2021/04/06 13:46:03;;;;;;;;;;;4.90;66.80;;;;;;5055949;28;19962;-68
2021/04/06 13:48:28;;;;;;;;;;;4.20;68.60;;;;;;5055615;28;19925;-66
2021/04/06 13:50:54;;;;;;;;;;;3.80;71.00;;;;;;5055381;28;19917;-68
2021/04/06 13:53:19;;;;;;;;;;;3.80;72.70;;;;;;5053899;28;19938;-67
2021/04/06 13:55:45;;;;;;;;;;;4.30;74.60;;;;;;5054660;28;19974;-66
2021/04/06 13:58:12;;;;;;;;;;;3.80;74.00;;;;;;5055187;28;19913;-66
2021/04/06 14:00:42;;;;;;;;;;;3.50;76.00;;;;;;5055445;28;20012;-67
2021/04/06 14:03:08;;;;;;;;;;;3.80;75.90;;;;;;5051558;28;20666;-67
2021/04/06 14:05:34;;;;;;;;;;;4.00;75.70;;;;;;5055685;28;19913;-67
2021/04/06 14:08:00;;;;;;;;;;;4.20;74.30;;;;;;5054309;28;19917;-66
2021/04/06 14:10:26;;;;;;;;;;;4.80;73.90;;;;;;5055316;28;19955;-68
2021/04/06 14:12:51;;;;;;;;;;;5.10;74.60;;;;;;5053533;28;20329;-68
2021/04/06 14:15:17;;;;;;;;;;;5.30;70.90;;;;;;5055246;28;19925;-67
2021/04/06 14:17:43;;;;;;;;;;;4.60;72.50;;;;;;5055618;28;19939;-68
2021/04/06 14:20:10;;;;;;;;;;;4.10;74.60;;;;;;5053330;28;19940;-67
2021/04/06 14:22:36;;;;;;;;;;;4.00;75.20;;;;;;5053978;28;19920;-66
2021/04/06 14:25:04;;;;;;;;;;;4.30;74.10;;;;;;5053608;28;19912;-67
2021/04/06 14:27:29;;;;;;;;;;;5.00;73.70;;;;;;5051488;28;19924;-67
2021/04/06 14:29:55;;;;;;;;;;;5.20;73.60;;;;;;5049922;28;20351;-68